SBBV

Atlas Brasil Cantanhede Airport

Boa Vista, Brazil
TAF SBBV 171600Z 1718/1818 12010KT 9999 BKN040 FEW045TCU TX35/1718Z T N25/1809Z BECMG 1719/1721 09005KT FEW040 BECMG 1723/1801 09008KT CAVOK BECMG 1 803/1805 09005KT BECMG 1807/1809 09010KT BECMG 1811/1813 09013KT 9999 SCT030 BECMG 1815/1817 12010KT BKN040 FEW045TCU RMK PDY
Issued Valid From Valid To
Nov-17 @ 16:00 UTC
(6 hours ago)
Nov-17 @ 18:00 UTC
(4 hours ago)
Nov-18 @ 18:00 UTC
(in 20 hours)
Expired Click to View Nov-17 @ 18:00 to Nov-17 @ 19:00
TAF SBBV 171600Z 1718/1818 12010KT 9999 BKN040 FEW045TCU TX35/1718Z T N25/1809Z
Wind Visibility Clouds
120° at 10 knots 10,000+ meters
  • Broken at 4,000' AGL
  • Few at 4,500' AGL
Becoming Nov-17 @ 19:00 to Nov-17 @ 23:00
BECMG 1719/1721 09005KT FEW040
Wind Visibility Clouds
90° at 5 knots 10,000+ meters
  • Few at 4,000' AGL
Becoming Nov-17 @ 23:00 to Nov-18 @ 07:00
BECMG 1723/1801 09008KT CAVOK
Wind Visibility Clouds Conditions
90° at 8 knots 10,000+ meters
  • No significant clouds
Becoming Nov-18 @ 07:00 to Nov-18 @ 11:00
BECMG 1807/1809 09010KT
Wind Visibility Clouds Conditions
90° at 10 knots 10,000+ meters
  • No significant clouds
Becoming Nov-18 @ 11:00 to Nov-18 @ 15:00
BECMG 1811/1813 09013KT 9999 SCT030
Wind Visibility Clouds Conditions
90° at 13 knots 10,000+ meters
  • Scattered at 3,000' AGL
Becoming Nov-18 @ 15:00 to Nov-18 @ 18:00
BECMG 1815/1817 12010KT BKN040 FEW045TCU RMK PDY
Wind Visibility Clouds Conditions
120° at 10 knots 10,000+ meters
  • Broken at 4,000' AGL
  • Few at 4,500' AGL
TAF SBBV 171600Z 1718/1818 12010KT 9999 BKN040 FEW045TCU TX35/1718Z T N25/1809Z BECMG 1719/1721 09005KT FEW040 BECMG 1723/1801 09008KT CAVOK BECMG 1 803/1805 09005KT BECMG 1807/1809 09010KT BECMG 1811/1813 09013KT 9999 SCT030 BECMG 1815/1817 12010KT BKN040 FEW045TCU RMK PDY
Issued Nov-17 @ 16:00 UTC
(6 hours ago)
Valid From Nov-17 @ 18:00 UTC
(4 hours ago)
Valid To Nov-18 @ 18:00 UTC
(in 20 hours)
Nov-17 @ 18:00 - Nov-17 @ 19:00
Wind Visibility
120° at 10 knots 10,000+ meters
Clouds
  • Broken at 4,000' AGL
  • Few at 4,500' AGL
Becoming Nov-17 @ 19:00 - Nov-17 @ 23:00
Wind Visibility
90° at 5 knots 10,000+ meters
Clouds
  • Few at 4,000' AGL
Becoming Nov-17 @ 23:00 - Nov-18 @ 07:00
Wind Visibility
90° at 8 knots 10,000+ meters
Clouds
  • No significant clouds
Conditions
Becoming Nov-18 @ 07:00 - Nov-18 @ 11:00
Wind Visibility
90° at 10 knots 10,000+ meters
Clouds
  • No significant clouds
Conditions
Becoming Nov-18 @ 11:00 - Nov-18 @ 15:00
Wind Visibility
90° at 13 knots 10,000+ meters
Clouds
  • Scattered at 3,000' AGL
Conditions
Becoming Nov-18 @ 15:00 - Nov-18 @ 18:00
Wind Visibility
120° at 10 knots 10,000+ meters
Clouds
  • Broken at 4,000' AGL
  • Few at 4,500' AGL
Conditions